Pagina principale
METAR-TAF:

METAR-TAF

Aeroporti :

Aeroporto di Berna

Berna, Svizzera

latitudine: 46-55N, longitudine: 007-30E, altezza: 505 m

Osservazione

Il bollettino è stato emesso 31 minuti fa, alle 05:50 UTC
Vento 3 kt da direzioni variabili
Temperature 23°C
Umidità 78%
Pressione 1025 hPa
Visibilità 10 km o più
nessuna nube inferiore a 1500 m e nessun cumulonembo

METAR: LSZB 270550Z VRB03KT CAVOK 23/19 Q1025 NOSIG

Ora: 08:21 (06:21 UTC)

Previsione

Il bollettino è stato emesso 56 minuti fa, alle 05:25 UTC
Previsione valida dal 27 alle 06 UTC al 27 alle 15 UTC
Vento 3 kt da nord
Visibilità 10 km o più
nessuna nube inferiore a 1500 m e nessun cumulonembo

TAF: LSZB 270525Z 2706/2715 35003KT CAVOK

Osservazioni e previsioni meteorologiche di più di 4000 aeroporti (messaggi METAR e TAF).

Le stazioni disponibili sono rappresentate dai dischi gialli e rossi sulla carta.

Puntare il mouse per vedere il nome della stazione.

Clicca sopra per visualizzare le osservazioni e previsioni meteorologiche.

Per cambiare la mappa : fare clic sui pulsanti verdi con una croce nera per ingrandire, il pulsante verde con un trattino per diminuire, o sulla freccia verde per le mappe adiacenti.


METAR-TAF: